createdAt,value
2022-12-26T00:01:11.526Z,7.00
2022-12-26T00:03:40.683Z,7.30
2022-12-26T00:06:15.679Z,7.45
2022-12-26T00:08:43.367Z,6.72
2022-12-26T00:11:10.808Z,7.43
2022-12-26T00:13:41.433Z,7.50
2022-12-26T00:16:19.798Z,7.93
2022-12-26T00:18:47.133Z,7.63
2022-12-26T00:21:18.183Z,7.47
2022-12-26T00:23:45.982Z,7.32
2022-12-26T00:26:17.888Z,7.53
2022-12-26T00:28:48.241Z,7.20
2022-12-26T00:31:20.335Z,6.80
2022-12-26T00:33:48.658Z,6.93
2022-12-26T00:36:20.956Z,7.80
2022-12-26T00:38:50.742Z,6.82
2022-12-26T00:41:19.736Z,7.23
2022-12-26T00:43:46.864Z,8.45
2022-12-26T00:46:14.080Z,7.75
2022-12-26T00:48:45.381Z,8.68
2022-12-26T00:51:12.220Z,7.93
2022-12-26T00:53:39.183Z,7.60
2022-12-26T00:56:09.030Z,7.00
2022-12-26T00:58:36.320Z,7.65
2022-12-26T01:01:20.157Z,7.38
2022-12-26T01:03:47.622Z,7.47
2022-12-26T01:06:14.725Z,7.50
2022-12-26T01:08:41.847Z,7.70
2022-12-26T01:11:14.466Z,8.30
2022-12-26T01:13:44.400Z,7.47
2022-12-26T01:16:11.130Z,7.03
2022-12-26T01:18:38.054Z,7.63
2022-12-26T01:21:08.533Z,7.38
2022-12-26T01:23:37.561Z,7.22
2022-12-26T01:26:18.985Z,7.60
2022-12-26T01:28:48.399Z,7.03
2022-12-26T01:31:15.392Z,7.97
2022-12-26T01:33:42.014Z,7.90
2022-12-26T01:36:11.078Z,7.80
2022-12-26T01:38:37.677Z,8.18
2022-12-26T01:41:21.980Z,7.90
2022-12-26T01:44:27.479Z,7.87
2022-12-26T01:46:56.529Z,7.18
2022-12-26T01:49:41.347Z,7.50
2022-12-26T01:52:19.663Z,7.07
2022-12-26T01:54:50.711Z,7.15
2022-12-26T01:57:24.099Z,7.80
2022-12-26T01:59:57.039Z,8.05
2022-12-26T02:02:27.535Z,7.85
2022-12-26T02:05:13.362Z,7.97
2022-12-26T02:07:44.245Z,7.93
2022-12-26T02:10:21.348Z,7.83
2022-12-26T02:12:49.817Z,7.10
2022-12-26T02:15:19.227Z,7.95
2022-12-26T02:17:48.802Z,8.23
2022-12-26T02:20:20.707Z,7.15
2022-12-26T02:23:29.262Z,7.50
2022-12-26T02:26:14.669Z,7.35
2022-12-26T02:28:54.117Z,7.53
2022-12-26T02:31:29.273Z,7.13
2022-12-26T02:34:09.101Z,8.60
2022-12-26T02:37:00.679Z,7.70
2022-12-26T02:39:44.030Z,7.55
2022-12-26T02:42:49.949Z,8.18
2022-12-26T02:46:02.067Z,7.72
2022-12-26T02:48:28.637Z,8.00
2022-12-26T02:51:25.979Z,7.47
2022-12-26T02:54:38.582Z,7.15
2022-12-26T02:57:27.754Z,7.63
2022-12-26T03:00:12.724Z,7.25
2022-12-26T03:03:30.421Z,7.75
2022-12-26T03:06:27.799Z,7.83
2022-12-26T03:09:31.007Z,7.13
2022-12-26T03:12:21.864Z,6.80
2022-12-26T03:14:50.938Z,8.38
2022-12-26T03:17:48.459Z,7.70
2022-12-26T03:20:30.388Z,7.20
2022-12-26T03:23:01.626Z,8.13
2022-12-26T03:25:59.505Z,7.70
2022-12-26T03:28:29.659Z,7.50
2022-12-26T03:31:00.010Z,7.60
2022-12-26T03:33:51.877Z,7.50
2022-12-26T03:36:42.983Z,7.65
2022-12-26T03:39:09.505Z,7.18
2022-12-26T03:42:06.924Z,7.32
2022-12-26T03:45:10.625Z,7.57
2022-12-26T03:48:07.683Z,7.13
2022-12-26T03:51:10.047Z,8.02
2022-12-26T03:54:08.035Z,7.10
2022-12-26T03:56:59.364Z,7.57
2022-12-26T04:00:19.881Z,7.47
2022-12-26T04:03:12.360Z,7.30
2022-12-26T04:06:01.640Z,7.35
2022-12-26T04:08:55.151Z,6.65
2022-12-26T04:11:43.601Z,7.00
2022-12-26T04:14:46.546Z,7.35
2022-12-26T04:17:59.500Z,6.33
2022-12-26T04:21:06.514Z,7.47
2022-12-26T04:24:07.833Z,6.85
2022-12-26T04:27:06.452Z,6.40
2022-12-26T04:29:51.786Z,6.70
2022-12-26T04:32:47.637Z,6.87
2022-12-26T04:35:41.822Z,7.20
2022-12-26T04:38:32.294Z,6.40
2022-12-26T04:41:20.608Z,6.68
2022-12-26T04:44:25.461Z,6.95
2022-12-26T04:46:56.380Z,6.50
2022-12-26T04:49:41.612Z,6.75
2022-12-26T04:52:17.270Z,7.32
2022-12-26T04:54:43.845Z,6.72
2022-12-26T04:57:11.527Z,7.18
2022-12-26T04:59:40.557Z,6.67
2022-12-26T05:02:27.430Z,7.18
2022-12-26T05:05:17.623Z,6.30
2022-12-26T05:08:02.812Z,6.65
2022-12-26T05:10:29.633Z,7.43
2022-12-26T05:13:00.817Z,6.33
2022-12-26T05:15:27.414Z,6.93
2022-12-26T05:18:12.311Z,5.85
2022-12-26T05:20:58.455Z,6.90
2022-12-26T05:23:46.829Z,6.97
2022-12-26T05:26:41.286Z,6.70
2022-12-26T05:29:08.444Z,7.13
2022-12-26T05:31:37.530Z,7.30
2022-12-26T05:34:07.735Z,8.07
2022-12-26T05:36:56.739Z,8.18
2022-12-26T05:39:25.704Z,6.43
2022-12-26T05:41:52.264Z,6.90
2022-12-26T05:44:18.861Z,6.95
2022-12-26T05:46:48.742Z,7.10
2022-12-26T05:49:15.686Z,7.32
2022-12-26T05:51:44.513Z,7.87
2022-12-26T05:54:15.791Z,7.80
2022-12-26T05:56:49.300Z,7.05
2022-12-26T05:59:36.091Z,7.38
2022-12-26T06:02:02.754Z,6.75
2022-12-26T06:04:33.699Z,7.20
2022-12-26T06:07:00.263Z,6.95
2022-12-26T06:09:26.852Z,7.40
2022-12-26T06:11:55.526Z,7.72
2022-12-26T06:14:24.329Z,6.78
2022-12-26T06:16:53.160Z,7.03
2022-12-26T06:19:22.514Z,7.03
2022-12-26T06:21:49.051Z,7.82
2022-12-26T06:24:15.648Z,6.82
2022-12-26T06:26:42.181Z,6.97
2022-12-26T06:29:11.033Z,7.33
2022-12-26T06:31:42.307Z,6.75
2022-12-26T06:34:11.331Z,7.13
2022-12-26T06:36:40.387Z,7.13
2022-12-26T06:39:06.998Z,7.85
2022-12-26T06:41:36.483Z,6.53
2022-12-26T06:44:03.040Z,6.00
2022-12-26T06:46:29.728Z,6.55
2022-12-26T06:49:01.202Z,7.15
2022-12-26T06:51:29.062Z,6.72
2022-12-26T06:54:02.519Z,6.70
2022-12-26T06:56:32.597Z,7.30
2022-12-26T06:59:01.718Z,6.65
2022-12-26T07:01:31.157Z,8.35
2022-12-26T07:03:58.317Z,6.82
2022-12-26T07:06:26.771Z,6.77
2022-12-26T07:08:57.156Z,6.60
2022-12-26T07:11:26.056Z,5.82
2022-12-26T07:13:54.168Z,6.13
2022-12-26T07:16:23.303Z,6.43
2022-12-26T07:18:55.957Z,6.13
2022-12-26T07:21:23.879Z,6.57
2022-12-26T07:23:55.546Z,6.60
2022-12-26T07:26:23.486Z,6.68
2022-12-26T07:28:56.301Z,6.47
2022-12-26T07:31:28.289Z,6.40
2022-12-26T07:34:05.043Z,6.03
2022-12-26T07:36:31.778Z,6.88
2022-12-26T07:38:58.374Z,6.53
2022-12-26T07:41:43.565Z,6.38
2022-12-26T07:44:15.658Z,6.43
2022-12-26T07:46:47.539Z,6.75
2022-12-26T07:49:14.496Z,6.32
2022-12-26T07:51:42.217Z,6.63
2022-12-26T07:54:11.570Z,6.38
2022-12-26T07:56:39.162Z,6.10
2022-12-26T07:59:05.846Z,5.65
2022-12-26T08:01:32.588Z,5.80
2022-12-26T08:04:01.589Z,6.00
2022-12-26T08:06:28.278Z,6.25
2022-12-26T08:08:57.252Z,5.83
2022-12-26T08:11:24.841Z,6.10
2022-12-26T08:13:56.256Z,5.30
2022-12-26T08:16:23.118Z,6.30
2022-12-26T08:18:49.793Z,5.88
2022-12-26T08:21:16.562Z,6.13
2022-12-26T08:23:43.246Z,6.05
2022-12-26T08:26:12.372Z,5.90
2022-12-26T08:28:41.460Z,5.80
2022-12-26T08:31:13.699Z,6.40
2022-12-26T08:33:40.288Z,5.37
2022-12-26T08:36:10.978Z,5.53
2022-12-26T08:38:40.891Z,5.68
2022-12-26T08:41:09.758Z,5.53
2022-12-26T08:44:16.508Z,4.85
2022-12-26T08:46:30.325Z,5.10
2022-12-26T08:48:56.941Z,4.70
2022-12-26T08:51:28.037Z,4.80
2022-12-26T08:53:55.205Z,4.95
2022-12-26T08:56:25.627Z,4.95
2022-12-26T08:58:52.503Z,5.13
2022-12-26T09:01:22.214Z,4.30
2022-12-26T09:03:55.873Z,4.15
2022-12-26T09:06:22.873Z,4.10
2022-12-26T09:08:49.628Z,4.75
2022-12-26T09:11:22.476Z,4.10
2022-12-26T09:13:51.527Z,4.20
2022-12-26T09:16:26.738Z,4.15
2022-12-26T09:18:59.564Z,4.38
2022-12-26T09:21:26.548Z,4.88
2022-12-26T09:24:04.100Z,4.03
2022-12-26T09:26:33.404Z,4.63
2022-12-26T09:29:03.231Z,4.72
2022-12-26T09:31:34.840Z,3.70
2022-12-26T09:34:06.082Z,3.72
2022-12-26T09:36:35.598Z,4.17
2022-12-26T09:39:02.249Z,3.80
2022-12-26T09:41:37.915Z,4.28
2022-12-26T09:44:16.528Z,4.15
2022-12-26T09:46:52.108Z,3.83
2022-12-26T09:49:24.931Z,3.80
2022-12-26T09:51:59.235Z,3.83
2022-12-26T09:54:29.923Z,3.33
2022-12-26T09:57:07.354Z,4.40
2022-12-26T09:59:50.033Z,4.45
2022-12-26T10:02:20.102Z,3.60
2022-12-26T10:04:47.515Z,3.83
2022-12-26T10:07:39.403Z,3.60
2022-12-26T10:10:14.178Z,3.47
2022-12-26T10:13:32.827Z,4.20
2022-12-26T10:16:08.276Z,3.57
2022-12-26T10:18:38.257Z,4.25
2022-12-26T10:21:15.999Z,3.90
2022-12-26T10:23:55.855Z,3.88
2022-12-26T10:26:29.227Z,4.13
2022-12-26T10:29:08.189Z,4.00
2022-12-26T10:31:48.286Z,3.67
2022-12-26T10:34:37.116Z,3.83
2022-12-26T10:37:20.673Z,3.40
2022-12-26T10:39:56.545Z,3.90
2022-12-26T10:42:39.747Z,4.33
2022-12-26T10:45:18.383Z,3.88
2022-12-26T10:47:50.719Z,3.95
2022-12-26T10:50:27.564Z,3.70
2022-12-26T10:52:55.962Z,4.13
2022-12-26T10:55:31.592Z,3.90
2022-12-26T10:58:16.660Z,3.67
2022-12-26T11:00:43.694Z,4.28
2022-12-26T11:03:15.948Z,3.45
2022-12-26T11:06:07.117Z,3.92
2022-12-26T11:08:40.883Z,4.13
2022-12-26T11:11:48.342Z,4.13
2022-12-26T11:14:42.574Z,4.55
2022-12-26T11:17:13.481Z,4.82
2022-12-26T11:19:44.377Z,4.07
2022-12-26T11:22:32.433Z,4.73
2022-12-26T11:25:03.248Z,3.65
2022-12-26T11:27:32.048Z,3.72
2022-12-26T11:30:13.984Z,3.28
2022-12-26T11:32:48.817Z,3.10
2022-12-26T11:35:20.850Z,3.33
2022-12-26T11:37:57.974Z,3.83
2022-12-26T11:40:32.938Z,3.60
2022-12-26T11:43:03.334Z,3.45
2022-12-26T11:45:39.216Z,3.72
2022-12-26T11:48:19.272Z,3.87
2022-12-26T11:50:46.592Z,3.95
2022-12-26T11:53:17.918Z,4.45
2022-12-26T11:55:45.129Z,4.82
2022-12-26T11:58:21.005Z,3.95
2022-12-26T12:00:54.320Z,4.60
2022-12-26T12:03:20.848Z,3.80
2022-12-26T12:06:03.088Z,3.45
2022-12-26T12:08:39.515Z,3.45
2022-12-26T12:11:40.506Z,3.60
2022-12-26T12:14:19.244Z,3.33
2022-12-26T12:16:57.129Z,3.33
2022-12-26T12:19:59.215Z,3.83
2022-12-26T12:22:45.788Z,3.67
2022-12-26T12:25:39.206Z,5.13
2022-12-26T12:28:24.605Z,4.20
2022-12-26T12:31:19.137Z,2.95
2022-12-26T12:33:54.061Z,3.55
2022-12-26T12:37:05.679Z,2.72
2022-12-26T12:39:32.150Z,2.80
2022-12-26T12:42:33.743Z,3.60
2022-12-26T12:45:27.092Z,3.08
2022-12-26T12:48:24.996Z,3.15
2022-12-26T12:51:10.434Z,3.35
2022-12-26T12:53:46.021Z,2.70
2022-12-26T12:56:42.411Z,2.60
2022-12-26T12:59:24.642Z,2.10
2022-12-26T13:01:57.592Z,1.42
2022-12-26T13:04:36.084Z,1.50
2022-12-26T13:07:11.193Z,1.50
2022-12-26T13:09:55.830Z,1.27
2022-12-26T13:12:26.510Z,1.50
2022-12-26T13:14:59.681Z,1.10
2022-12-26T13:17:46.369Z,1.10
2022-12-26T13:20:12.873Z,0.95
2022-12-26T13:23:05.578Z,1.00
2022-12-26T13:25:44.285Z,1.23
2022-12-26T13:28:30.419Z,0.73
2022-12-26T13:31:01.849Z,0.80
2022-12-26T13:33:33.653Z,0.68
2022-12-26T13:36:03.315Z,0.90
2022-12-26T13:38:54.297Z,0.85
2022-12-26T13:41:39.855Z,0.85
2022-12-26T13:44:07.770Z,0.75
2022-12-26T13:46:37.388Z,0.60
2022-12-26T13:49:04.389Z,0.80
2022-12-26T13:51:50.693Z,0.63
2022-12-26T13:54:18.336Z,0.80
2022-12-26T13:56:46.151Z,1.08
2022-12-26T13:59:53.206Z,1.13
2022-12-26T14:03:19.525Z,1.70
2022-12-26T14:05:56.394Z,1.30
2022-12-26T14:08:26.009Z,2.00
2022-12-26T14:11:23.807Z,1.73
2022-12-26T14:14:07.757Z,2.33
2022-12-26T14:16:49.058Z,2.40
2022-12-26T14:19:40.981Z,1.98
2022-12-26T14:22:12.202Z,1.90
2022-12-26T14:25:15.062Z,1.40
2022-12-26T14:27:47.415Z,1.30
2022-12-26T14:30:49.495Z,2.23
2022-12-26T14:33:27.924Z,1.52
2022-12-26T14:36:15.275Z,1.60
2022-12-26T14:39:03.486Z,1.10
2022-12-26T14:42:26.693Z,1.20
2022-12-26T14:44:55.667Z,1.30
2022-12-26T14:47:43.960Z,3.60
2022-12-26T14:50:34.840Z,2.58
2022-12-26T14:53:34.948Z,8.18
2022-12-26T14:56:01.775Z,9.82
2022-12-26T14:58:31.140Z,7.00
2022-12-26T15:01:10.012Z,7.10
2022-12-26T15:04:03.236Z,4.40
2022-12-26T15:06:42.014Z,3.55
2022-12-26T15:09:15.340Z,2.50
2022-12-26T15:11:57.198Z,2.83
2022-12-26T15:14:57.548Z,1.95
2022-12-26T15:17:42.520Z,1.70
2022-12-26T15:20:39.530Z,1.50
2022-12-26T15:23:39.935Z,1.25
2022-12-26T15:26:09.561Z,1.23
2022-12-26T15:28:51.201Z,0.93
2022-12-26T15:31:27.106Z,1.05
2022-12-26T15:33:59.975Z,1.10
2022-12-26T15:36:47.542Z,1.10
2022-12-26T15:39:25.985Z,1.03
2022-12-26T15:42:00.602Z,0.80
2022-12-26T15:44:39.578Z,1.05
2022-12-26T15:47:27.116Z,1.20
2022-12-26T15:50:05.476Z,0.90
2022-12-26T15:53:18.712Z,0.77
2022-12-26T15:56:03.900Z,1.08
2022-12-26T15:58:42.630Z,1.40
2022-12-26T16:01:11.403Z,1.30
2022-12-26T16:03:55.592Z,0.90
2022-12-26T16:06:49.928Z,2.17
2022-12-26T16:09:44.729Z,4.30
2022-12-26T16:12:26.337Z,2.33
2022-12-26T16:15:05.185Z,2.03
2022-12-26T16:17:34.203Z,1.60
2022-12-26T16:20:43.929Z,2.03
2022-12-26T16:23:23.899Z,1.63
2022-12-26T16:25:59.564Z,1.83
2022-12-26T16:28:50.430Z,2.08
2022-12-26T16:31:28.934Z,2.50
2022-12-26T16:33:58.922Z,2.30
2022-12-26T16:36:30.183Z,2.55
2022-12-26T16:38:56.933Z,2.33
2022-12-26T16:41:26.088Z,2.70
2022-12-26T16:43:54.523Z,2.70
2022-12-26T16:46:31.379Z,2.37
2022-12-26T16:49:00.385Z,2.47
2022-12-26T16:51:49.680Z,2.40
2022-12-26T16:54:22.078Z,3.30
2022-12-26T16:56:50.297Z,3.20
2022-12-26T16:59:25.095Z,3.70
2022-12-26T17:01:56.149Z,3.53
2022-12-26T17:04:28.818Z,3.90
2022-12-26T17:07:16.311Z,3.67
2022-12-26T17:09:49.705Z,3.53
2022-12-26T17:12:35.630Z,3.43
2022-12-26T17:15:06.630Z,3.10
2022-12-26T17:17:44.768Z,2.60
2022-12-26T17:20:23.275Z,2.45
2022-12-26T17:22:51.521Z,2.15
2022-12-26T17:25:18.092Z,2.43
2022-12-26T17:27:47.641Z,2.38
2022-12-26T17:30:30.552Z,2.45
2022-12-26T17:33:10.932Z,2.22
2022-12-26T17:36:32.900Z,2.20
2022-12-26T17:38:27.008Z,2.03
2022-12-26T17:41:01.025Z,2.30
2022-12-26T17:43:35.153Z,1.67
2022-12-26T17:46:03.011Z,1.58
2022-12-26T17:48:29.880Z,1.50
2022-12-26T17:50:59.862Z,1.33
2022-12-26T17:53:33.101Z,1.40
2022-12-26T17:56:04.682Z,1.60
2022-12-26T17:58:36.625Z,1.40
2022-12-26T18:01:08.042Z,1.23
2022-12-26T18:03:34.688Z,1.90
2022-12-26T18:06:03.470Z,1.95
2022-12-26T18:08:41.633Z,2.08
2022-12-26T18:11:13.316Z,1.85
2022-12-26T18:13:43.274Z,1.92
2022-12-26T18:16:18.807Z,2.03
2022-12-26T18:18:48.507Z,1.83
2022-12-26T18:21:16.439Z,2.17
2022-12-26T18:23:45.499Z,1.42
2022-12-26T18:26:26.443Z,1.80
2022-12-26T18:28:53.270Z,1.80
2022-12-26T18:31:22.223Z,1.73
2022-12-26T18:33:48.860Z,2.30
2022-12-26T18:36:20.201Z,1.90
2022-12-26T18:38:49.037Z,1.70
2022-12-26T18:41:20.753Z,1.50
2022-12-26T18:43:50.326Z,0.90
2022-12-26T18:46:19.077Z,1.08
2022-12-26T18:48:46.492Z,0.82
2022-12-26T18:51:19.487Z,0.70
2022-12-26T18:53:46.821Z,0.73
2022-12-26T18:56:19.164Z,1.17
2022-12-26T18:58:48.394Z,1.13
2022-12-26T19:01:19.387Z,1.00
2022-12-26T19:03:48.455Z,0.88
2022-12-26T19:06:21.339Z,0.80
2022-12-26T19:08:50.492Z,0.88
2022-12-26T19:11:19.432Z,0.68
2022-12-26T19:13:46.161Z,0.60
2022-12-26T19:16:15.220Z,0.73
2022-12-26T19:18:43.964Z,0.60
2022-12-26T19:21:14.308Z,0.70
2022-12-26T19:23:43.397Z,0.90
2022-12-26T19:26:15.700Z,0.57
2022-12-26T19:28:45.071Z,0.63
2022-12-26T19:31:17.018Z,0.93
2022-12-26T19:33:43.812Z,0.73
2022-12-26T19:36:13.372Z,0.60
2022-12-26T19:38:42.700Z,0.95
2022-12-26T19:41:14.329Z,1.58
2022-12-26T19:43:45.893Z,0.60
2022-12-26T19:46:15.605Z,0.60
2022-12-26T19:48:42.615Z,0.73
2022-12-26T19:51:12.885Z,0.80
2022-12-26T19:53:41.613Z,1.20
2022-12-26T19:56:14.987Z,0.90
2022-12-26T19:58:42.591Z,0.82
2022-12-26T20:01:18.764Z,0.60
2022-12-26T20:03:45.974Z,0.57
2022-12-26T20:06:20.803Z,0.73
2022-12-26T20:08:50.995Z,0.60
2022-12-26T20:11:21.499Z,0.60
2022-12-26T20:13:49.307Z,0.60
2022-12-26T20:16:54.684Z,0.60
2022-12-26T20:19:08.990Z,0.55
2022-12-26T20:21:38.558Z,0.50
2022-12-26T20:24:05.568Z,0.73
2022-12-26T20:26:34.394Z,0.50
2022-12-26T20:29:01.996Z,0.90
2022-12-26T20:31:30.450Z,0.60
2022-12-26T20:33:59.479Z,0.40
2022-12-26T20:36:32.995Z,0.50
2022-12-26T20:39:02.513Z,0.52
2022-12-26T20:41:29.721Z,0.40
2022-12-26T20:44:01.055Z,0.40
2022-12-26T20:46:32.093Z,0.60
2022-12-26T20:49:02.583Z,0.50
2022-12-26T20:51:36.947Z,0.70
2022-12-26T20:54:08.937Z,0.40
2022-12-26T20:56:36.775Z,0.40
2022-12-26T20:59:06.566Z,0.80
2022-12-26T21:01:33.510Z,0.50
2022-12-26T21:04:02.484Z,0.40
2022-12-26T21:06:31.868Z,0.50
2022-12-26T21:09:00.867Z,0.50
2022-12-26T21:11:30.411Z,0.33
2022-12-26T21:14:03.576Z,0.30
2022-12-26T21:16:46.035Z,0.40
2022-12-26T21:19:16.099Z,0.35
2022-12-26T21:21:47.255Z,0.75
2022-12-26T21:24:22.335Z,0.30
2022-12-26T21:26:51.247Z,0.50
2022-12-26T21:29:20.777Z,0.50
2022-12-26T21:31:48.190Z,0.30
2022-12-26T21:34:19.632Z,0.40
2022-12-26T21:37:05.698Z,0.30
2022-12-26T21:39:33.536Z,0.30
2022-12-26T21:42:06.379Z,0.40
2022-12-26T21:44:33.423Z,0.38
2022-12-26T21:47:02.383Z,0.30
2022-12-26T21:49:29.015Z,0.30
2022-12-26T21:52:00.102Z,0.40
2022-12-26T21:54:49.125Z,0.35
2022-12-26T21:57:17.213Z,0.28
2022-12-26T21:59:56.148Z,0.30
2022-12-26T22:02:56.873Z,0.30
2022-12-26T22:05:28.370Z,0.30
2022-12-26T22:07:59.547Z,0.30
2022-12-26T22:10:50.378Z,0.30
2022-12-26T22:13:18.679Z,0.30
2022-12-26T22:16:07.801Z,0.30
2022-12-26T22:18:46.273Z,0.30
2022-12-26T22:21:18.342Z,0.30
2022-12-26T22:23:45.761Z,0.30
2022-12-26T22:26:17.083Z,0.35
2022-12-26T22:28:44.143Z,0.30
2022-12-26T22:31:40.067Z,0.30
2022-12-26T22:34:12.417Z,0.30
2022-12-26T22:36:41.564Z,0.40
2022-12-26T22:39:09.842Z,0.35
2022-12-26T22:41:37.517Z,0.40
2022-12-26T22:44:08.895Z,0.40
2022-12-26T22:46:37.992Z,0.40
2022-12-26T22:49:06.863Z,0.60
2022-12-26T22:51:35.800Z,0.40
2022-12-26T22:54:02.626Z,0.40
2022-12-26T22:56:29.616Z,0.40
2022-12-26T22:59:03.363Z,0.40
2022-12-26T23:01:32.907Z,0.40
2022-12-26T23:04:05.355Z,0.40
2022-12-26T23:06:35.506Z,0.30
2022-12-26T23:09:04.824Z,0.30
2022-12-26T23:11:35.223Z,0.30
2022-12-26T23:14:04.909Z,0.38
2022-12-26T23:16:52.477Z,0.30
2022-12-26T23:19:46.272Z,0.37
2022-12-26T23:22:13.196Z,0.40
2022-12-26T23:24:39.780Z,0.30
2022-12-26T23:27:28.498Z,0.45
2022-12-26T23:30:16.085Z,0.30
2022-12-26T23:32:46.119Z,0.37
2022-12-26T23:35:13.360Z,0.20
2022-12-26T23:37:40.934Z,0.30
2022-12-26T23:40:10.243Z,0.30
2022-12-26T23:42:39.589Z,0.30
2022-12-26T23:45:07.196Z,0.30
2022-12-26T23:47:36.907Z,0.30
2022-12-26T23:50:05.058Z,0.22
2022-12-26T23:52:34.097Z,0.40
2022-12-26T23:55:00.696Z,0.30
2022-12-26T23:57:29.342Z,0.40
2022-12-26T23:59:58.313Z,0.30
